This is the latest recevied weather packets stored in our database for station/object YO8SSH-13. If no packets are shown the sender has not sent any weather packets the latest 10 day(s).
| Time | Temp. | Humidity | Pressure | Rain* | Wind** | Luminosity | Snow |
|---|---|---|---|---|---|---|---|
| 1777616894 | 11.11° C | 40% | 1023 hPa | 0 mm | - | - | - |
| 1777615995 | 11.11° C | 43% | 1023 hPa | 0 mm | - | - | - |
| 1777615095 | 10° C | 48% | 1023 hPa | 0 mm | - | - | - |
| 1777614195 | 8.33° C | 50% | 1023 hPa | 0 mm | - | - | - |
| 1777613295 | 7.22° C | 54% | 1023 hPa | 0 mm | - | - | - |
| 1777612394 | 6.11° C | 57% | 1023 hPa | 0 mm | - | - | - |
| 1777611496 | 2.78° C | 62% | 1023 hPa | 0 mm | - | - | - |
| 1777610594 | 1.67° C | 62% | 1023 hPa | 0 mm | - | - | - |
| 1777609695 | 1.11° C | 63% | 1023 hPa | 0 mm | - | - | - |
| 1777608796 | 1.11° C | 64% | 1023 hPa | 0 mm | - | - | - |
| 1777607896 | 0.56° C | 64% | 1023 hPa | 0 mm | - | - | - |
| 1777606995 | 0.56° C | 64% | 1023 hPa | 0 mm | - | - | - |
| 1777606094 | 0.56° C | 63% | 1023 hPa | 0 mm | - | - | - |
| 1777605197 | 0.56° C | 63% | 1023 hPa | 0 mm | - | - | - |
| 1777604295 | 1.11° C | 62% | 1023 hPa | 0 mm | - | - | - |
| 1777603395 | 1.11° C | 61% | 1023 hPa | 0 mm | - | - | - |
| 1777602494 | 1.67° C | 59% | 1023 hPa | 0 mm | - | - | - |
| 1777601595 | 1.67° C | 59% | 1023 hPa | 0 mm | - | - | - |
| 1777600695 | 1.67° C | 59% | 1022 hPa | 0 mm | - | - | - |
| 1777599794 | 2.22° C | 59% | 1023 hPa | 0 mm | - | - | - |
| 1777598895 | 2.22° C | 58% | 1023 hPa | 0 mm | - | - | - |
| 1777597996 | 2.22° C | 58% | 1023 hPa | 0 mm | - | - | - |
| 1777597094 | 2.78° C | 57% | 1023 hPa | 0 mm | - | - | - |
| 1777596194 | 2.78° C | 57% | 1023 hPa | 0 mm | - | - | - |
| 1777595294 | 2.78° C | 56% | 1023 hPa | 0 mm | - | - | - |
* Rain latest hour (hover to see other rain measurements)
** Current wind speed in m/s (hover to see current wind gust speed)